Time;durP1;ratioP1;P1;durP2;ratioP2;P2;SDS_P1;SDS_P2;PMS_P1;PMS_P2;Temp;Humidity;BMP_temperature;BMP_pressure;BME280_temperature;BME280_humidity;BME280_pressure;Samples;Min_cycle;Max_cycle;Signal;HPM_P1;HPM_P2
2021/04/16 00:01:51;;;;;;;3.70;2.70;;;2.60;57.60;;;;;;5071403;28;20223;-86
2021/04/16 00:04:18;;;;;;;7.30;3.53;;;2.60;57.90;;;;;;5068045;28;20250;-86
2021/04/16 00:06:44;;;;;;;6.63;3.37;;;2.60;58.00;;;;;;5068260;28;20621;-86
2021/04/16 00:09:10;;;;;;;4.27;3.23;;;2.50;58.50;;;;;;5062153;28;20212;-85
2021/04/16 00:11:37;;;;;;;3.83;3.33;;;2.60;60.00;;;;;;5068827;28;20567;-86
2021/04/16 00:14:03;;;;;;;4.50;3.50;;;2.50;58.70;;;;;;5069384;28;20204;-86
2021/04/16 00:16:31;;;;;;;4.47;3.13;;;2.60;59.70;;;;;;5068639;28;20274;-87
2021/04/16 00:18:58;;;;;;;5.53;3.60;;;2.50;58.90;;;;;;5069681;28;20220;-86
2021/04/16 00:21:26;;;;;;;5.30;3.27;;;2.50;60.70;;;;;;5062765;28;20282;-86
2021/04/16 00:23:52;;;;;;;3.27;2.87;;;2.50;60.80;;;;;;5062510;28;20231;-86
2021/04/16 00:26:18;;;;;;;5.90;4.20;;;2.70;61.90;;;;;;5067346;28;20579;-86
2021/04/16 00:28:45;;;;;;;4.20;3.80;;;2.90;60.00;;;;;;5070116;28;20221;-86
2021/04/16 00:31:15;;;;;;;4.93;3.57;;;2.70;58.50;;;;;;5064952;28;20225;-86
2021/04/16 00:33:42;;;;;;;4.67;3.47;;;2.60;59.60;;;;;;5065260;28;20212;-86
2021/04/16 00:36:09;;;;;;;4.83;3.13;;;2.50;59.60;;;;;;5065469;28;20227;-86
2021/04/16 00:38:36;;;;;;;3.83;3.30;;;2.40;60.90;;;;;;5070088;28;20215;-86
2021/04/16 00:41:05;;;;;;;4.33;3.70;;;2.30;61.80;;;;;;5067601;28;20227;-86
2021/04/16 00:43:33;;;;;;;4.47;3.37;;;2.20;62.70;;;;;;5069632;28;20221;-86
2021/04/16 00:46:20;;;;;;;4.03;3.57;;;2.30;63.80;;;;;;5066346;28;20224;-86
2021/04/16 00:48:52;;;;;;;28.03;19.13;;;2.20;62.90;;;;;;5068173;28;20739;-85
2021/04/16 00:51:22;;;;;;;10.80;8.30;;;2.50;67.10;;;;;;5065382;28;20254;-87
2021/04/16 00:53:49;;;;;;;3.60;3.20;;;2.70;61.00;;;;;;5071232;28;20613;-86
2021/04/16 00:56:16;;;;;;;4.33;3.60;;;2.50;60.60;;;;;;5070305;28;20236;-85
2021/04/16 00:58:42;;;;;;;5.10;4.20;;;2.40;61.80;;;;;;5069623;28;20552;-86
2021/04/16 01:01:09;;;;;;;3.97;3.30;;;2.30;64.10;;;;;;5070025;28;20683;-85
2021/04/16 01:03:35;;;;;;;5.73;3.70;;;2.20;63.30;;;;;;5069834;28;20224;-85
2021/04/16 01:06:06;;;;;;;3.50;3.20;;;2.10;64.10;;;;;;5073559;28;20255;-85
2021/04/16 01:08:34;;;;;;;6.60;5.07;;;2.10;65.00;;;;;;5070812;28;20524;-88
2021/04/16 01:11:01;;;;;;;7.90;6.00;;;2.20;66.80;;;;;;5072392;28;20224;-87
2021/04/16 01:13:28;;;;;;;4.70;3.87;;;2.10;66.70;;;;;;5067225;28;20677;-88
2021/04/16 01:15:59;;;;;;;5.23;3.90;;;2.00;66.60;;;;;;5069095;28;20234;-85
2021/04/16 01:18:28;;;;;;;5.03;3.90;;;2.00;66.60;;;;;;5067785;28;20203;-86
2021/04/16 01:20:58;;;;;;;5.03;3.90;;;1.90;66.50;;;;;;5069793;28;20226;-88
2021/04/16 01:23:35;;;;;;;6.17;4.73;;;1.90;66.50;;;;;;5068825;28;20596;-87
2021/04/16 01:26:05;;;;;;;5.60;5.00;;;1.90;66.60;;;;;;5067251;28;20240;-85
2021/04/16 01:28:31;;;;;;;4.33;3.93;;;2.10;66.70;;;;;;5071300;28;20227;-85
2021/04/16 01:31:00;;;;;;;6.63;4.30;;;2.10;66.70;;;;;;5069139;28;20231;-85
2021/04/16 01:33:29;;;;;;;7.43;4.43;;;2.00;66.60;;;;;;5074006;28;20200;-86
2021/04/16 01:35:56;;;;;;;5.67;3.97;;;1.90;66.50;;;;;;5071172;28;20227;-87
2021/04/16 01:38:23;;;;;;;5.17;3.90;;;1.90;66.70;;;;;;5068808;28;20208;-86
2021/04/16 01:40:50;;;;;;;7.07;4.10;;;1.90;69.50;;;;;;5070353;28;20254;-86
2021/04/16 01:43:21;;;;;;;5.50;4.50;;;1.80;68.00;;;;;;5072572;28;20223;-86
2021/04/16 01:45:48;;;;;;;5.20;4.37;;;1.70;68.10;;;;;;5071347;28;20672;-85
2021/04/16 01:48:15;;;;;;;4.90;4.40;;;1.70;69.00;;;;;;5063979;28;20212;-85
2021/04/16 01:50:41;;;;;;;4.80;4.20;;;1.70;70.00;;;;;;5071860;28;20715;-85
2021/04/16 01:53:07;;;;;;;6.50;4.40;;;1.70;69.50;;;;;;5071675;28;20214;-85
2021/04/16 01:55:34;;;;;;;5.03;4.20;;;1.60;70.50;;;;;;5069983;28;20268;-86
2021/04/16 01:58:00;;;;;;;6.53;4.17;;;1.60;70.70;;;;;;5072678;28;20235;-85
2021/04/16 02:00:33;;;;;;;4.90;4.23;;;1.50;71.20;;;;;;5072167;28;20220;-87
2021/04/16 02:02:59;;;;;;;4.87;4.37;;;1.50;71.60;;;;;;5068233;28;20198;-86
2021/04/16 02:05:26;;;;;;;6.83;5.73;;;1.50;72.20;;;;;;5071586;28;20228;-88
2021/04/16 02:07:53;;;;;;;7.53;4.57;;;1.60;75.40;;;;;;5058976;28;20762;-85
2021/04/16 02:10:20;;;;;;;5.23;4.60;;;1.50;72.60;;;;;;5068143;28;20228;-85
2021/04/16 02:12:47;;;;;;;5.80;4.87;;;1.50;73.40;;;;;;5069733;28;20541;-85
2021/04/16 02:15:14;;;;;;;6.03;4.70;;;1.50;73.80;;;;;;5071249;28;20759;-84
2021/04/16 02:17:41;;;;;;;6.77;5.13;;;1.50;73.80;;;;;;5071662;28;20218;-85
2021/04/16 02:20:10;;;;;;;6.37;4.20;;;1.60;73.10;;;;;;5070548;28;20237;-85
2021/04/16 02:22:36;;;;;;;5.80;4.87;;;1.50;72.80;;;;;;5065574;28;20665;-85
2021/04/16 02:25:04;;;;;;;5.67;4.70;;;1.50;73.60;;;;;;5069760;28;20310;-85
2021/04/16 02:27:30;;;;;;;7.27;4.40;;;1.50;73.90;;;;;;5072087;28;20210;-85
2021/04/16 02:29:57;;;;;;;5.43;4.83;;;1.40;74.00;;;;;;5069747;28;20230;-85
2021/04/16 02:32:24;;;;;;;5.30;4.80;;;1.40;74.30;;;;;;5064285;28;20752;-85
2021/04/16 02:34:51;;;;;;;6.03;5.27;;;1.30;74.90;;;;;;5070016;28;20226;-86
2021/04/16 02:37:20;;;;;;;5.33;4.67;;;1.50;77.00;;;;;;5069521;28;20715;-85
2021/04/16 02:39:47;;;;;;;8.57;5.40;;;1.90;74.80;;;;;;5063626;28;20263;-84
2021/04/16 02:42:13;;;;;;;6.63;5.07;;;2.10;72.00;;;;;;5069537;28;20199;-85
2021/04/16 02:44:41;;;;;;;7.17;5.87;;;1.80;72.30;;;;;;5063670;28;20224;-85
2021/04/16 02:47:08;;;;;;;7.53;4.97;;;1.80;76.20;;;;;;5066620;28;20630;-84
2021/04/16 02:49:34;;;;;;;8.13;5.43;;;2.10;74.70;;;;;;5067614;28;20240;-85
2021/04/16 02:52:03;;;;;;;5.00;4.40;;;2.30;71.50;;;;;;5066888;28;20196;-85
2021/04/16 02:54:29;;;;;;;5.50;4.37;;;2.10;69.60;;;;;;5067380;28;20622;-86
2021/04/16 02:56:56;;;;;;;6.37;4.70;;;1.90;69.50;;;;;;5057981;28;20211;-86
2021/04/16 02:59:30;;;;;;;4.90;4.40;;;1.60;71.90;;;;;;5071122;28;20216;-85
2021/04/16 03:01:57;;;;;;;6.30;4.40;;;1.50;73.60;;;;;;5065192;28;20210;-86
2021/04/16 03:04:23;;;;;;;5.10;4.30;;;1.60;75.40;;;;;;5061247;28;20589;-84
2021/04/16 03:06:49;;;;;;;7.47;4.10;;;1.60;75.10;;;;;;5067195;28;20226;-84
2021/04/16 03:09:17;;;;;;;7.17;4.03;;;1.50;73.70;;;;;;5067874;28;20595;-86
2021/04/16 03:11:43;;;;;;;5.33;4.50;;;1.60;76.70;;;;;;5070406;28;20308;-84
2021/04/16 03:14:10;;;;;;;5.30;4.77;;;1.70;75.60;;;;;;5069830;28;20211;-85
2021/04/16 03:16:36;;;;;;;6.20;4.50;;;1.70;77.30;;;;;;5066912;28;20221;-85
2021/04/16 03:19:05;;;;;;;4.93;4.17;;;2.20;75.80;;;;;;5068768;28;20235;-84
2021/04/16 03:21:32;;;;;;;5.20;4.27;;;2.20;71.20;;;;;;5067542;28;20699;-84
2021/04/16 03:23:59;;;;;;;7.67;4.70;;;2.30;70.80;;;;;;5070194;28;20220;-85
2021/04/16 03:26:27;;;;;;;5.40;4.37;;;2.00;70.90;;;;;;5065102;28;20224;-84
2021/04/16 03:28:56;;;;;;;7.13;4.60;;;2.00;74.00;;;;;;5067305;28;20591;-85
2021/04/16 03:31:24;;;;;;;5.03;4.10;;;2.00;75.50;;;;;;5069735;28;20591;-84
2021/04/16 03:33:50;;;;;;;4.93;4.23;;;2.20;72.00;;;;;;5072866;28;20205;-84
2021/04/16 03:36:16;;;;;;;6.23;4.60;;;2.00;72.30;;;;;;5070320;28;20303;-84
2021/04/16 03:38:43;;;;;;;6.17;4.50;;;1.70;73.80;;;;;;5071656;28;20268;-84
2021/04/16 03:41:09;;;;;;;5.17;4.40;;;1.70;75.60;;;;;;5071033;28;20232;-84
2021/04/16 03:43:37;;;;;;;4.60;4.10;;;1.60;75.50;;;;;;5071853;28;20231;-84
2021/04/16 03:46:03;;;;;;;6.73;4.50;;;1.60;76.40;;;;;;5071291;28;20264;-84
2021/04/16 03:48:30;;;;;;;6.80;4.73;;;1.80;76.60;;;;;;5072323;28;20192;-85
2021/04/16 03:50:56;;;;;;;5.20;4.53;;;1.70;76.70;;;;;;5073004;28;20225;-84
2021/04/16 03:53:24;;;;;;;5.30;4.80;;;1.50;75.80;;;;;;5071482;28;20222;-84
2021/04/16 03:55:50;;;;;;;4.93;4.33;;;1.70;76.90;;;;;;5071153;28;20227;-84
2021/04/16 03:58:17;;;;;;;5.63;4.53;;;1.80;76.60;;;;;;5068394;28;20196;-84
2021/04/16 04:00:44;;;;;;;5.77;4.60;;;1.80;75.10;;;;;;5066034;28;20233;-84
2021/04/16 04:03:13;;;;;;;6.67;4.93;;;1.60;76.40;;;;;;5069851;28;20198;-85
2021/04/16 04:05:40;;;;;;;5.60;4.33;;;1.50;77.40;;;;;;5070172;28;20225;-84
2021/04/16 04:08:07;;;;;;;8.33;4.50;;;1.70;79.70;;;;;;5076881;28;20195;-84
2021/04/16 04:10:36;;;;;;;5.87;4.63;;;1.80;78.50;;;;;;5068284;28;20239;-83
2021/04/16 04:13:04;;;;;;;5.73;4.63;;;1.80;76.20;;;;;;5071393;28;20205;-83
2021/04/16 04:15:30;;;;;;;7.70;5.27;;;1.50;76.40;;;;;;5066173;28;20311;-87
2021/04/16 04:17:58;;;;;;;8.53;5.53;;;1.30;78.20;;;;;;5067193;28;20916;-84
2021/04/16 04:20:28;;;;;;;8.07;5.67;;;1.60;82.40;;;;;;5067096;28;20217;-85
2021/04/16 04:22:54;;;;;;;5.40;4.60;;;1.90;81.00;;;;;;5062105;28;20199;-84
2021/04/16 04:25:22;;;;;;;8.20;4.97;;;2.20;78.10;;;;;;5070346;28;20240;-85
2021/04/16 04:27:50;;;;;;;4.83;4.30;;;2.20;79.90;;;;;;5070867;28;20203;-84
2021/04/16 04:30:20;;;;;;;6.30;4.80;;;2.10;76.50;;;;;;5068256;28;20744;-84
2021/04/16 04:32:47;;;;;;;6.50;4.97;;;1.80;76.70;;;;;;5069729;28;20289;-85
2021/04/16 04:35:15;;;;;;;6.50;4.73;;;1.70;77.20;;;;;;5070306;28;20272;-85
2021/04/16 04:37:42;;;;;;;7.37;4.83;;;1.60;78.60;;;;;;5070904;28;20208;-86
2021/04/16 04:40:10;;;;;;;5.17;4.60;;;1.40;78.70;;;;;;5070536;28;20222;-85
2021/04/16 04:42:36;;;;;;;6.40;5.13;;;1.50;81.30;;;;;;5070417;28;20236;-88
2021/04/16 04:45:04;;;;;;;5.80;4.80;;;1.50;80.10;;;;;;5067885;28;20227;-84
2021/04/16 04:47:30;;;;;;;6.70;5.23;;;1.50;78.60;;;;;;5065476;28;20290;-85
2021/04/16 04:49:58;;;;;;;9.10;5.20;;;1.40;79.00;;;;;;5072020;28;20229;-83
2021/04/16 04:52:27;;;;;;;6.40;4.80;;;1.30;79.90;;;;;;5073408;28;20619;-85
2021/04/16 04:54:56;;;;;;;8.50;5.53;;;1.20;80.20;;;;;;5070812;28;20236;-83
2021/04/16 04:57:24;;;;;;;7.30;5.50;;;1.20;81.00;;;;;;5070630;28;20204;-84
2021/04/16 04:59:51;;;;;;;7.80;5.73;;;1.20;80.80;;;;;;5061770;28;20234;-84
2021/04/16 05:02:19;;;;;;;8.23;5.80;;;1.30;81.80;;;;;;5069049;28;20205;-84
2021/04/16 05:04:46;;;;;;;8.57;5.53;;;1.30;80.80;;;;;;5077202;28;20631;-83
2021/04/16 05:07:13;;;;;;;9.07;6.07;;;1.40;81.60;;;;;;5077254;28;20627;-82
2021/04/16 05:09:40;;;;;;;6.33;5.57;;;1.50;80.70;;;;;;5075710;28;20205;-84
2021/04/16 05:12:08;;;;;;;8.00;5.67;;;1.60;81.40;;;;;;5077410;28;20198;-84
2021/04/16 05:14:34;;;;;;;6.27;5.17;;;1.80;83.10;;;;;;5075939;28;20199;-84
2021/04/16 05:17:01;;;;;;;7.60;5.57;;;2.00;81.70;;;;;;5075982;28;20285;-85
2021/04/16 05:19:28;;;;;;;8.07;5.70;;;2.10;78.60;;;;;;5071084;28;20207;-86
2021/04/16 05:21:56;;;;;;;6.37;5.77;;;1.90;78.30;;;;;;5073175;28;20227;-87
2021/04/16 05:24:23;;;;;;;7.80;5.90;;;1.80;79.00;;;;;;5071562;28;20312;-87
2021/04/16 05:26:50;;;;;;;7.20;5.90;;;1.80;79.50;;;;;;5086532;28;20229;-83
2021/04/16 05:29:16;;;;;;;6.60;5.67;;;1.80;80.40;;;;;;5072776;28;20222;-83
2021/04/16 05:31:44;;;;;;;10.57;6.13;;;2.00;80.00;;;;;;5069308;28;20699;-85
2021/04/16 05:34:10;;;;;;;8.00;6.43;;;1.90;79.20;;;;;;5072753;28;20202;-84
2021/04/16 05:36:37;;;;;;;8.60;6.27;;;1.80;79.10;;;;;;5064802;28;20225;-84
2021/04/16 05:39:03;;;;;;;11.10;6.57;;;1.80;80.10;;;;;;5076574;28;20196;-84
2021/04/16 05:41:50;;;;;;;8.23;6.30;;;1.80;80.00;;;;;;5076521;28;20634;-84
2021/04/16 05:44:18;;;;;;;6.77;6.07;;;1.90;79.60;;;;;;5073076;28;20584;-85
2021/04/16 05:46:45;;;;;;;7.93;6.23;;;2.00;78.70;;;;;;5070443;28;20230;-87
2021/04/16 05:49:11;;;;;;;7.87;6.17;;;2.10;79.50;;;;;;5070759;28;20485;-84
2021/04/16 05:51:38;;;;;;;7.10;6.27;;;2.20;79.20;;;;;;5070347;28;20294;-84
2021/04/16 05:54:05;;;;;;;8.10;6.67;;;2.30;78.80;;;;;;5072475;28;20212;-85
2021/04/16 05:56:32;;;;;;;9.43;6.40;;;2.50;78.30;;;;;;5069976;28;20473;-85
2021/04/16 05:58:58;;;;;;;9.17;6.60;;;2.80;76.20;;;;;;5069597;28;20206;-84
2021/04/16 06:01:26;;;;;;;7.63;6.30;;;3.30;72.80;;;;;;5066982;28;20229;-88
2021/04/16 06:03:54;;;;;;;7.93;6.10;;;3.80;68.50;;;;;;5070083;28;20276;-85
2021/04/16 06:06:20;;;;;;;10.50;6.27;;;4.00;68.70;;;;;;5069365;28;20221;-84
2021/04/16 06:08:48;;;;;;;7.33;5.63;;;3.70;68.40;;;;;;5072899;28;20209;-84
2021/04/16 06:11:14;;;;;;;8.67;6.17;;;3.90;68.60;;;;;;5072146;28;20217;-86
2021/04/16 06:13:41;;;;;;;6.80;5.40;;;4.90;64.70;;;;;;5074804;28;20193;-86
2021/04/16 06:16:09;;;;;;;5.90;5.40;;;5.60;57.80;;;;;;5071081;28;20718;-88
2021/04/16 06:18:36;;;;;;;6.50;5.77;;;5.40;58.50;;;;;;5078284;28;20201;-86
2021/04/16 06:21:04;;;;;;;6.97;5.90;;;6.00;54.70;;;;;;5073180;28;20308;-88
2021/04/16 06:23:30;;;;;;;7.13;5.63;;;6.30;53.10;;;;;;5080031;28;20221;-87
2021/04/16 06:25:57;;;;;;;7.13;5.83;;;6.40;52.50;;;;;;5078625;28;20260;-88
2021/04/16 06:28:23;;;;;;;8.13;6.00;;;6.20;52.60;;;;;;5076324;28;20205;-89
2021/04/16 06:30:50;;;;;;;7.03;6.33;;;6.10;53.10;;;;;;5074637;28;20221;-85
2021/04/16 06:33:22;;;;;;;8.03;5.97;;;5.80;54.50;;;;;;5077195;28;20200;-84
2021/04/16 06:35:51;;;;;;;9.57;5.90;;;5.50;55.80;;;;;;5073987;28;20254;-89
2021/04/16 06:38:20;;;;;;;7.73;6.40;;;5.00;57.50;;;;;;5077183;28;20198;-83
2021/04/16 06:40:52;;;;;;;7.37;6.67;;;5.10;60.00;;;;;;5073093;28;20233;-85
2021/04/16 06:43:22;;;;;;;6.47;5.80;;;5.40;59.70;;;;;;5080187;28;20211;-89
2021/04/16 06:45:53;;;;;;;6.57;5.80;;;5.70;56.90;;;;;;5077740;28;20290;-86
2021/04/16 06:48:20;;;;;;;8.53;6.23;;;5.90;55.80;;;;;;5079390;28;20217;-86
2021/04/16 06:50:46;;;;;;;6.50;5.83;;;6.60;53.70;;;;;;5077902;28;20240;-86
2021/04/16 06:53:28;;;;;;;9.20;6.45;;;6.90;52.30;;;;;;5070373;28;20197;-86
2021/04/16 06:55:58;;;;;;;6.70;6.07;;;7.40;49.50;;;;;;5077722;28;20213;-86
2021/04/16 06:58:29;;;;;;;5.65;5.05;;;7.30;49.30;;;;;;5076176;28;20202;-87
2021/04/16 07:01:10;;;;;;;10.48;5.93;;;7.40;48.90;;;;;;5072714;28;20229;-89
2021/04/16 07:03:41;;;;;;;6.80;6.13;;;7.40;47.40;;;;;;5080704;28;20571;-86
2021/04/16 07:06:21;;;;;;;6.63;5.53;;;7.50;48.40;;;;;;5081432;28;20220;-87
2021/04/16 07:08:59;;;;;;;6.60;5.90;;;7.10;48.10;;;;;;5076349;28;20243;-86
2021/04/16 07:11:29;;;;;;;9.10;5.47;;;6.90;51.20;;;;;;5078177;28;20239;-86
2021/04/16 07:14:00;;;;;;;6.60;6.00;;;7.20;51.00;;;;;;5071145;28;20205;-86
2021/04/16 07:16:27;;;;;;;7.63;5.83;;;6.60;49.80;;;;;;5077985;28;20216;-87
2021/04/16 07:18:57;;;;;;;6.90;5.70;;;6.90;50.10;;;;;;5075119;28;20246;-86
2021/04/16 07:21:24;;;;;;;7.23;5.80;;;6.70;51.50;;;;;;5073297;28;20225;-86
2021/04/16 07:23:54;;;;;;;6.33;5.73;;;6.80;51.30;;;;;;5073793;28;20224;-89
2021/04/16 07:26:35;;;;;;;6.60;5.90;;;6.70;51.20;;;;;;5073504;28;20224;-87
2021/04/16 07:29:02;;;;;;;5.87;5.33;;;6.60;48.90;;;;;;5071983;28;20266;-87
2021/04/16 07:31:42;;;;;;;7.27;5.70;;;6.70;51.20;;;;;;5072740;28;20240;-85
2021/04/16 07:34:17;;;;;;;5.80;5.20;;;6.40;49.90;;;;;;5068674;28;20193;-88
2021/04/16 07:36:44;;;;;;;9.30;5.70;;;6.50;51.90;;;;;;5073393;28;20225;-88
2021/04/16 07:39:31;;;;;;;6.53;5.83;;;6.90;54.60;;;;;;5071866;28;20254;-85
2021/04/16 07:42:15;;;;;;;6.83;5.50;;;6.70;51.70;;;;;;5072850;28;20270;-87
2021/04/16 07:44:56;;;;;;;6.83;6.13;;;6.60;51.00;;;;;;5073262;28;20287;-85
2021/04/16 07:47:26;;;;;;;9.47;5.27;;;7.80;50.90;;;;;;5078770;28;20664;-85
2021/04/16 07:49:55;;;;;;;7.53;5.20;;;7.70;46.50;;;;;;5075677;28;20244;-85
2021/04/16 07:52:27;;;;;;;7.25;4.88;;;8.10;46.80;;;;;;5077729;28;20198;-85
2021/04/16 07:55:12;;;;;;;5.43;4.90;;;8.20;43.90;;;;;;5077404;28;20259;-86
2021/04/16 07:57:41;;;;;;;8.07;5.40;;;8.30;43.60;;;;;;5077913;28;20224;-86
2021/04/16 08:00:12;;;;;;;6.65;5.43;;;8.00;43.30;;;;;;5076941;28;20229;-85
2021/04/16 08:02:44;;;;;;;5.80;5.22;;;7.30;46.20;;;;;;5077860;28;20250;-86
2021/04/16 08:05:16;;;;;;;8.52;5.45;;;7.50;46.30;;;;;;5078195;28;20225;-85
2021/04/16 08:07:42;;;;;;;6.55;5.78;;;7.50;46.30;;;;;;5073016;28;20225;-88
2021/04/16 08:10:17;;;;;;;5.93;5.15;;;8.00;46.70;;;;;;5068297;28;20683;-89
2021/04/16 08:12:43;;;;;;;5.80;5.00;;;8.40;45.10;;;;;;5074122;28;20208;-88
2021/04/16 08:15:26;;;;;;;7.03;4.97;;;8.40;45.20;;;;;;5071240;28;20235;-89
2021/04/16 08:17:53;;;;;;;5.25;4.53;;;8.50;42.40;;;;;;5075585;28;20714;-89
2021/04/16 08:20:31;;;;;;;8.10;4.20;;;8.80;41.90;;;;;;5069609;28;20274;-89
2021/04/16 08:22:58;;;;;;;5.43;4.93;;;8.80;41.80;;;;;;5070050;28;20212;-88
2021/04/16 08:25:38;;;;;;;8.13;4.95;;;8.90;40.50;;;;;;5074645;28;20233;-88
2021/04/16 08:28:09;;;;;;;5.90;5.05;;;8.90;39.00;;;;;;5070060;28;20193;-88
2021/04/16 08:30:45;;;;;;;4.57;4.18;;;9.40;38.00;;;;;;5071787;28;20221;-88
2021/04/16 08:33:21;;;;;;;4.50;4.10;;;9.80;35.10;;;;;;5076754;28;20204;-90
2021/04/16 08:35:58;;;;;;;5.68;4.15;;;9.80;35.10;;;;;;5074671;28;20692;-89
2021/04/16 08:38:27;;;;;;;5.28;4.78;;;9.80;34.80;;;;;;5073462;28;20197;-91
2021/04/16 08:40:57;;;;;;;4.38;3.97;;;10.10;32.80;;;;;;5073081;28;20579;-87
2021/04/16 08:43:30;;;;;;;5.80;4.90;;;9.90;33.30;;;;;;5075959;28;20201;-88
2021/04/16 08:45:59;;;;;;;5.20;3.95;;;10.00;34.10;;;;;;5074337;28;20232;-88
2021/04/16 08:48:30;;;;;;;5.22;4.50;;;10.20;32.30;;;;;;5078625;28;20232;-85
2021/04/16 08:51:06;;;;;;;4.63;4.22;;;11.10;31.80;;;;;;5077542;28;20592;-87
2021/04/16 08:53:32;;;;;;;4.65;4.25;;;11.40;29.40;;;;;;5078679;28;20266;-88
2021/04/16 08:56:12;;;;;;;4.82;4.43;;;12.30;26.70;;;;;;5073620;28;20229;-88
2021/04/16 08:58:39;;;;;;;4.50;4.10;;;12.80;26.00;;;;;;5073539;28;20204;-88
2021/04/16 09:01:12;;;;;;;5.50;4.82;;;13.90;26.90;;;;;;5076165;28;20232;-86
2021/04/16 09:03:45;;;;;;;5.03;4.63;;;13.10;26.20;;;;;;5070503;28;20204;-86
2021/04/16 09:06:25;;;;;;;5.88;4.40;;;13.80;24.70;;;;;;5077664;28;20221;-86
2021/04/16 09:08:54;;;;;;;4.82;4.50;;;13.70;25.10;;;;;;5075752;28;20213;-86
2021/04/16 09:11:53;;;;;;;5.07;4.50;;;15.10;22.10;;;;;;5078184;28;20964;-87
2021/04/16 09:14:54;;;;;;;4.88;4.38;;;16.60;19.30;;;;;;5068210;28;20651;-83
2021/04/16 09:17:41;;;;;;;4.57;4.28;;;15.90;22.20;;;;;;5080823;28;20296;-83
2021/04/16 09:20:07;;;;;;;5.15;4.60;;;15.30;22.10;;;;;;5074785;28;20584;-83
2021/04/16 09:22:42;;;;;;;4.85;4.45;;;16.60;23.80;;;;;;5070037;28;20201;-84
2021/04/16 09:25:42;;;;;;;4.85;4.28;;;16.70;19.50;;;;;;5076736;28;20228;-83
2021/04/16 09:28:45;;;;;;;4.95;4.32;;;15.80;21.10;;;;;;5081295;28;20189;-83
2021/04/16 09:31:49;;;;;;;5.53;5.00;;;14.20;23.10;;;;;;5078828;28;20227;-86
2021/04/16 09:34:20;;;;;;;5.20;4.80;;;12.30;25.60;;;;;;5073768;28;20201;-88
2021/04/16 09:36:50;;;;;;;5.63;5.13;;;11.40;29.70;;;;;;5064085;28;20221;-88
2021/04/16 09:39:33;;;;;;;5.45;4.95;;;10.80;29.20;;;;;;5073698;28;20198;-87
2021/04/16 09:41:59;;;;;;;5.30;4.80;;;9.90;32.40;;;;;;5069909;28;20239;-88
2021/04/16 09:44:45;;;;;;;5.55;5.05;;;9.30;33.10;;;;;;5073264;28;20284;-91
2021/04/16 09:47:33;;;;;;;6.20;4.95;;;9.00;35.80;;;;;;5072366;28;20217;-88
2021/04/16 09:50:00;;;;;;;5.85;4.85;;;9.10;34.10;;;;;;5078533;28;20231;-87
2021/04/16 09:52:48;;;;;;;7.68;4.82;;;9.30;35.60;;;;;;5071376;28;20201;-88
2021/04/16 09:55:57;;;;;;;5.15;4.22;;;9.60;33.30;;;;;;5076973;28;20250;-88
2021/04/16 09:58:58;;;;;;;4.80;4.30;;;10.20;31.90;;;;;;5079140;28;20214;-88
2021/04/16 10:01:26;;;;;;;8.95;4.30;;;11.00;29.80;;;;;;5076004;28;20220;-88
2021/04/16 10:03:55;;;;;;;5.30;4.28;;;12.60;26.70;;;;;;5071658;28;20220;-87
2021/04/16 10:06:37;;;;;;;4.10;3.70;;;14.30;23.30;;;;;;5077082;28;20223;-86
2021/04/16 10:09:09;;;;;;;3.80;3.50;;;15.70;20.00;;;;;;5073320;28;20253;-85
2021/04/16 10:11:36;;;;;;;4.13;3.78;;;17.70;17.30;;;;;;5079780;28;20228;-85
2021/04/16 10:14:20;;;;;;;4.50;4.10;;;16.40;18.30;;;;;;5075002;28;20211;-83
2021/04/16 10:16:52;;;;;;;4.50;4.10;;;15.60;18.80;;;;;;5074622;28;20276;-83
2021/04/16 10:19:23;;;;;;;4.65;4.22;;;15.10;22.30;;;;;;5076357;28;20205;-85
2021/04/16 10:21:50;;;;;;;5.38;4.60;;;15.60;21.10;;;;;;5081839;28;20283;-86
2021/04/16 12:38:27;;;;;;;5.07;4.63;;;10.40;28.60;;;;;;5055385;28;20193;-92
2021/04/16 12:41:03;;;;;;;6.28;4.53;;;10.30;28.70;;;;;;5054541;28;20222;-87
2021/04/16 12:43:30;;;;;;;6.50;4.45;;;10.30;28.30;;;;;;5054076;28;20205;-86
2021/04/16 12:45:57;;;;;;;4.88;4.25;;;10.60;30.60;;;;;;5061725;28;20210;-86
2021/04/16 12:55:38;;;;;;;5.45;4.72;;;11.60;28.10;;;;;;5059003;28;20217;-85
2021/04/16 13:04:57;;;;;;;6.65;4.85;;;10.90;27.60;;;;;;5060522;28;20255;-86
2021/04/16 13:07:23;;;;;;;4.80;4.40;;;11.20;26.70;;;;;;5057714;28;20221;-87
2021/04/16 13:09:49;;;;;;;5.25;4.75;;;10.80;26.90;;;;;;5058086;28;20289;-88
2021/04/16 13:12:18;;;;;;;6.03;4.60;;;10.60;28.00;;;;;;5059620;28;20202;-87
2021/04/16 13:14:44;;;;;;;5.22;4.53;;;10.30;29.00;;;;;;5058519;28;20202;-87
2021/04/16 13:17:13;;;;;;;5.32;4.82;;;9.90;32.40;;;;;;5041046;28;20556;-87
2021/04/16 13:19:43;;;;;;;5.88;5.25;;;9.70;31.00;;;;;;5038738;28;20198;-88
2021/04/16 13:22:11;;;;;;;4.85;4.43;;;9.30;31.60;;;;;;5039355;28;20203;-88
2021/04/16 13:24:39;;;;;;;5.95;5.25;;;9.20;34.10;;;;;;5049664;28;20210;-88
2021/04/16 13:27:08;;;;;;;5.07;4.60;;;9.20;33.20;;;;;;5058057;28;20202;-88
2021/04/16 13:29:35;;;;;;;5.95;4.88;;;9.60;31.50;;;;;;5064958;28;20191;-86
2021/04/16 13:32:12;;;;;;;5.30;4.80;;;9.60;30.50;;;;;;5048501;28;20240;-88
2021/04/16 13:34:39;;;;;;;4.88;4.45;;;9.70;31.60;;;;;;5026740;28;20247;-88
2021/04/16 13:37:08;;;;;;;5.38;4.28;;;10.00;31.70;;;;;;5030001;28;20203;-87
2021/04/16 13:39:34;;;;;;;6.63;4.65;;;10.10;29.20;;;;;;5024486;28;20202;-89
2021/04/16 13:52:40;;;;;;;7.05;4.60;;;10.80;29.70;;;;;;5042660;28;20187;-88
2021/04/16 14:32:53;;;;;;;6.38;4.78;;;9.40;30.30;;;;;;5382320;22;20275;-88
2021/04/16 14:35:21;;;;;;;6.45;4.55;;;9.10;31.40;;;;;;5067464;28;20226;-88
2021/04/16 14:37:48;;;;;;;6.95;5.28;;;9.00;31.00;;;;;;5053154;28;20269;-89
2021/04/16 14:40:16;;;;;;;6.43;5.75;;;8.90;31.90;;;;;;5059884;28;20225;-88
2021/04/16 14:42:43;;;;;;;5.97;5.33;;;8.80;31.80;;;;;;5061709;28;20261;-86
2021/04/16 14:45:12;;;;;;;6.13;4.97;;;8.70;32.20;;;;;;5060107;28;20225;-86
2021/04/16 14:47:39;;;;;;;5.13;4.63;;;8.70;32.40;;;;;;5064290;28;20708;-87
2021/04/16 14:50:11;;;;;;;7.22;5.40;;;8.70;32.40;;;;;;5059035;28;20222;-86
2021/04/16 15:47:01;;;;;;;4.68;4.20;;;9.50;31.90;;;;;;5064873;28;20205;-87
2021/04/16 15:49:36;;;;;;;4.75;4.20;;;9.50;32.00;;;;;;5061109;28;20198;-90
2021/04/16 15:52:27;;;;;;;4.95;4.32;;;9.40;32.20;;;;;;5061253;28;20217;-89
2021/04/16 15:54:53;;;;;;;5.35;4.85;;;9.30;32.90;;;;;;5041775;28;20248;-88
2021/04/16 15:57:20;;;;;;;5.57;4.50;;;9.00;33.10;;;;;;5042508;28;20277;-88
2021/04/16 15:59:47;;;;;;;4.82;4.43;;;9.00;33.40;;;;;;5057780;28;20222;-90
2021/04/16 16:02:16;;;;;;;5.13;4.63;;;9.00;33.70;;;;;;5051726;28;20203;-90
2021/04/16 16:04:43;;;;;;;8.27;4.80;;;8.60;34.60;;;;;;5044752;28;20223;-87
2021/04/16 16:07:10;;;;;;;5.20;4.70;;;8.70;34.60;;;;;;5049333;28;20202;-92
2021/04/16 16:09:38;;;;;;;6.90;4.93;;;8.50;35.30;;;;;;5051210;28;20253;-90
2021/04/16 16:12:09;;;;;;;5.30;4.30;;;8.40;35.10;;;;;;5047529;28;20202;-90
2021/04/16 16:14:38;;;;;;;7.38;5.30;;;8.50;35.50;;;;;;5053908;28;20194;-90
2021/04/16 16:17:05;;;;;;;4.43;4.03;;;8.50;36.40;;;;;;5057685;28;20274;-91
2021/04/16 16:19:33;;;;;;;5.80;4.50;;;8.60;36.50;;;;;;5051690;28;20198;-89
2021/04/16 16:21:59;;;;;;;5.88;4.82;;;8.60;36.40;;;;;;5043972;28;20230;-90
2021/04/16 16:24:28;;;;;;;6.23;4.70;;;8.40;37.60;;;;;;5043111;28;20685;-90
2021/04/16 16:26:54;;;;;;;6.83;4.73;;;8.40;38.00;;;;;;5047039;28;20560;-89
2021/04/16 16:29:23;;;;;;;11.13;5.00;;;8.30;37.40;;;;;;5053572;28;20190;-87
2021/04/16 16:31:50;;;;;;;5.73;4.50;;;8.20;38.50;;;;;;5054397;28;20237;-90
2021/04/16 16:34:18;;;;;;;4.90;4.13;;;8.20;37.50;;;;;;5056696;28;20297;-89
2021/04/16 16:36:47;;;;;;;6.60;4.70;;;8.10;37.80;;;;;;5042688;28;20226;-90
2021/04/16 16:39:13;;;;;;;5.70;4.53;;;7.90;38.30;;;;;;5031089;28;20285;-90
2021/04/16 16:41:40;;;;;;;4.73;4.27;;;7.90;37.70;;;;;;5028566;28;20318;-87
2021/04/16 16:44:15;;;;;;;5.00;4.50;;;7.70;37.40;;;;;;5021219;28;20203;-86
2021/04/16 16:46:41;;;;;;;6.73;4.80;;;7.50;37.80;;;;;;5022206;28;20222;-86
2021/04/16 16:49:09;;;;;;;4.87;4.40;;;7.30;38.50;;;;;;5023421;28;20254;-88
2021/04/16 16:51:36;;;;;;;4.87;4.37;;;7.20;38.90;;;;;;5024070;28;20229;-86
2021/04/16 16:54:10;;;;;;;5.60;4.47;;;7.20;38.80;;;;;;5023587;28;20195;-86
2021/04/16 16:56:37;;;;;;;7.17;4.50;;;7.20;39.10;;;;;;5017433;28;20237;-86
2021/04/16 16:59:05;;;;;;;5.20;4.60;;;7.10;39.00;;;;;;5028539;28;20202;-85
2021/04/16 17:01:32;;;;;;;6.27;4.53;;;7.10;39.40;;;;;;5021485;28;20276;-85
2021/04/16 17:04:01;;;;;;;5.17;4.33;;;7.10;39.50;;;;;;5025814;28;20202;-87
2021/04/16 17:06:33;;;;;;;6.77;4.30;;;7.10;39.70;;;;;;5018310;28;20287;-85
2021/04/16 17:09:00;;;;;;;4.70;4.03;;;7.10;39.40;;;;;;5027713;28;20194;-84
2021/04/16 17:11:29;;;;;;;5.77;4.40;;;7.00;39.60;;;;;;5019528;28;20269;-84
2021/04/16 17:13:58;;;;;;;4.87;4.47;;;6.90;39.90;;;;;;5027601;28;20790;-85
2021/04/16 17:16:24;;;;;;;4.83;4.33;;;6.90;40.10;;;;;;5028253;28;20223;-83
2021/04/16 17:18:51;;;;;;;5.97;4.27;;;6.70;40.90;;;;;;5032071;28;20631;-84
2021/04/16 17:21:21;;;;;;;5.27;4.37;;;6.70;41.00;;;;;;5031827;28;20234;-86